sensor_id;sensor_type;location;lat;lon;timestamp;P1;durP1;ratioP1;P2;durP2;ratioP2
173;SDS011;75;48.784;9.364;2022-12-10T00:01:07;81.20;;;43.90;;
173;SDS011;75;48.784;9.364;2022-12-10T00:03:35;108.70;;;50.97;;
173;SDS011;75;48.784;9.364;2022-12-10T00:06:03;119.47;;;54.23;;
173;SDS011;75;48.784;9.364;2022-12-10T00:08:31;112.30;;;52.07;;
173;SDS011;75;48.784;9.364;2022-12-10T00:10:58;113.70;;;52.50;;
173;SDS011;75;48.784;9.364;2022-12-10T00:13:26;97.80;;;49.83;;
173;SDS011;75;48.784;9.364;2022-12-10T00:15:53;110.20;;;50.93;;
173;SDS011;75;48.784;9.364;2022-12-10T00:18:21;96.67;;;48.20;;
173;SDS011;75;48.784;9.364;2022-12-10T00:20:48;104.10;;;47.87;;
173;SDS011;75;48.784;9.364;2022-12-10T00:23:15;97.30;;;45.60;;
173;SDS011;75;48.784;9.364;2022-12-10T00:25:43;90.47;;;44.37;;
173;SDS011;75;48.784;9.364;2022-12-10T00:28:10;87.70;;;43.90;;
173;SDS011;75;48.784;9.364;2022-12-10T00:30:37;91.03;;;46.17;;
173;SDS011;75;48.784;9.364;2022-12-10T00:33:05;91.10;;;44.53;;
173;SDS011;75;48.784;9.364;2022-12-10T00:35:34;95.03;;;45.10;;
173;SDS011;75;48.784;9.364;2022-12-10T00:38:02;96.10;;;47.07;;
173;SDS011;75;48.784;9.364;2022-12-10T00:40:29;83.93;;;42.57;;
173;SDS011;75;48.784;9.364;2022-12-10T00:42:57;94.63;;;46.67;;
173;SDS011;75;48.784;9.364;2022-12-10T00:45:24;96.27;;;46.57;;
173;SDS011;75;48.784;9.364;2022-12-10T00:47:51;95.57;;;46.93;;
173;SDS011;75;48.784;9.364;2022-12-10T00:50:19;100.47;;;47.40;;
173;SDS011;75;48.784;9.364;2022-12-10T00:52:46;103.87;;;50.37;;
173;SDS011;75;48.784;9.364;2022-12-10T00:55:13;111.50;;;51.90;;
173;SDS011;75;48.784;9.364;2022-12-10T00:57:41;103.47;;;49.00;;
173;SDS011;75;48.784;9.364;2022-12-10T01:00:08;111.57;;;49.87;;
173;SDS011;75;48.784;9.364;2022-12-10T01:02:36;117.47;;;52.23;;
173;SDS011;75;48.784;9.364;2022-12-10T01:05:03;108.33;;;50.47;;
173;SDS011;75;48.784;9.364;2022-12-10T01:07:31;101.47;;;48.13;;
173;SDS011;75;48.784;9.364;2022-12-10T01:09:58;98.97;;;48.57;;
173;SDS011;75;48.784;9.364;2022-12-10T01:12:25;109.27;;;49.77;;
173;SDS011;75;48.784;9.364;2022-12-10T01:14:53;116.30;;;50.60;;
173;SDS011;75;48.784;9.364;2022-12-10T01:17:20;100.33;;;47.83;;
173;SDS011;75;48.784;9.364;2022-12-10T01:19:47;99.37;;;47.60;;
173;SDS011;75;48.784;9.364;2022-12-10T01:22:15;99.87;;;48.63;;
173;SDS011;75;48.784;9.364;2022-12-10T01:24:42;93.97;;;46.30;;
173;SDS011;75;48.784;9.364;2022-12-10T01:27:10;103.50;;;48.80;;
173;SDS011;75;48.784;9.364;2022-12-10T01:29:37;99.97;;;47.50;;
173;SDS011;75;48.784;9.364;2022-12-10T01:32:04;96.40;;;45.97;;
173;SDS011;75;48.784;9.364;2022-12-10T01:34:31;95.90;;;46.90;;
173;SDS011;75;48.784;9.364;2022-12-10T01:36:59;100.77;;;46.87;;
173;SDS011;75;48.784;9.364;2022-12-10T01:39:26;96.80;;;46.57;;
173;SDS011;75;48.784;9.364;2022-12-10T01:41:55;90.10;;;44.33;;
173;SDS011;75;48.784;9.364;2022-12-10T01:46:50;88.57;;;44.00;;
173;SDS011;75;48.784;9.364;2022-12-10T01:49:19;80.70;;;41.67;;
173;SDS011;75;48.784;9.364;2022-12-10T01:51:48;78.93;;;40.70;;
173;SDS011;75;48.784;9.364;2022-12-10T01:54:19;77.60;;;41.00;;
173;SDS011;75;48.784;9.364;2022-12-10T01:56:49;76.83;;;40.33;;
173;SDS011;75;48.784;9.364;2022-12-10T01:59:17;76.83;;;40.53;;
173;SDS011;75;48.784;9.364;2022-12-10T02:09:35;83.50;;;43.10;;
173;SDS011;75;48.784;9.364;2022-12-10T02:14:37;95.40;;;45.20;;
173;SDS011;75;48.784;9.364;2022-12-10T02:17:08;85.93;;;44.73;;
173;SDS011;75;48.784;9.364;2022-12-10T02:19:57;96.90;;;47.10;;
173;SDS011;75;48.784;9.364;2022-12-10T02:22:28;95.60;;;46.70;;
173;SDS011;75;48.784;9.364;2022-12-10T02:24:57;96.57;;;47.40;;
173;SDS011;75;48.784;9.364;2022-12-10T02:27:27;102.90;;;50.30;;
173;SDS011;75;48.784;9.364;2022-12-10T02:29:57;96.33;;;47.17;;
173;SDS011;75;48.784;9.364;2022-12-10T02:32:30;87.90;;;44.33;;
173;SDS011;75;48.784;9.364;2022-12-10T02:35:00;95.83;;;46.13;;
173;SDS011;75;48.784;9.364;2022-12-10T02:37:29;91.10;;;46.33;;
173;SDS011;75;48.784;9.364;2022-12-10T02:39:58;84.50;;;43.70;;
173;SDS011;75;48.784;9.364;2022-12-10T02:42:26;87.77;;;43.67;;
173;SDS011;75;48.784;9.364;2022-12-10T02:44:54;86.63;;;43.17;;
173;SDS011;75;48.784;9.364;2022-12-10T02:47:23;88.57;;;43.27;;
173;SDS011;75;48.784;9.364;2022-12-10T02:49:51;84.40;;;42.60;;
173;SDS011;75;48.784;9.364;2022-12-10T02:52:20;85.33;;;42.50;;
173;SDS011;75;48.784;9.364;2022-12-10T02:54:48;85.13;;;43.07;;
173;SDS011;75;48.784;9.364;2022-12-10T02:57:29;77.97;;;40.67;;
173;SDS011;75;48.784;9.364;2022-12-10T03:02:43;79.43;;;41.80;;
173;SDS011;75;48.784;9.364;2022-12-10T03:08:08;77.87;;;39.50;;
173;SDS011;75;48.784;9.364;2022-12-10T03:10:44;88.60;;;44.23;;
173;SDS011;75;48.784;9.364;2022-12-10T03:13:14;95.33;;;46.43;;
173;SDS011;75;48.784;9.364;2022-12-10T03:15:43;96.90;;;46.50;;
173;SDS011;75;48.784;9.364;2022-12-10T03:18:11;82.27;;;42.50;;
173;SDS011;75;48.784;9.364;2022-12-10T03:20:41;91.63;;;45.03;;
173;SDS011;75;48.784;9.364;2022-12-10T03:23:11;87.97;;;42.33;;
173;SDS011;75;48.784;9.364;2022-12-10T03:25:40;75.90;;;40.47;;
173;SDS011;75;48.784;9.364;2022-12-10T03:28:08;79.00;;;39.30;;
173;SDS011;75;48.784;9.364;2022-12-10T03:30:35;91.27;;;45.97;;
173;SDS011;75;48.784;9.364;2022-12-10T03:33:03;79.80;;;43.40;;
173;SDS011;75;48.784;9.364;2022-12-10T03:35:31;81.83;;;42.40;;
173;SDS011;75;48.784;9.364;2022-12-10T03:37:59;84.00;;;43.77;;
173;SDS011;75;48.784;9.364;2022-12-10T03:40:26;81.60;;;42.70;;
173;SDS011;75;48.784;9.364;2022-12-10T03:42:53;84.53;;;44.03;;
173;SDS011;75;48.784;9.364;2022-12-10T03:45:21;83.50;;;43.77;;
173;SDS011;75;48.784;9.364;2022-12-10T03:47:48;83.47;;;43.37;;
173;SDS011;75;48.784;9.364;2022-12-10T03:50:16;89.97;;;45.13;;
173;SDS011;75;48.784;9.364;2022-12-10T03:52:43;89.23;;;43.40;;
173;SDS011;75;48.784;9.364;2022-12-10T03:55:11;82.40;;;43.40;;
173;SDS011;75;48.784;9.364;2022-12-10T03:57:38;77.60;;;40.80;;
173;SDS011;75;48.784;9.364;2022-12-10T04:00:06;76.27;;;40.57;;
173;SDS011;75;48.784;9.364;2022-12-10T04:02:34;74.80;;;39.40;;
173;SDS011;75;48.784;9.364;2022-12-10T04:05:01;78.93;;;41.20;;
173;SDS011;75;48.784;9.364;2022-12-10T04:07:28;76.13;;;39.37;;
173;SDS011;75;48.784;9.364;2022-12-10T04:09:56;72.63;;;39.50;;
173;SDS011;75;48.784;9.364;2022-12-10T04:12:23;69.47;;;36.90;;
173;SDS011;75;48.784;9.364;2022-12-10T04:14:50;72.73;;;38.27;;
173;SDS011;75;48.784;9.364;2022-12-10T04:17:41;71.77;;;38.47;;
173;SDS011;75;48.784;9.364;2022-12-10T04:20:09;68.40;;;36.90;;
173;SDS011;75;48.784;9.364;2022-12-10T04:22:56;70.30;;;39.90;;
173;SDS011;75;48.784;9.364;2022-12-10T04:25:42;79.83;;;44.50;;
173;SDS011;75;48.784;9.364;2022-12-10T04:28:28;80.87;;;41.13;;
173;SDS011;75;48.784;9.364;2022-12-10T04:30:56;80.50;;;42.17;;
173;SDS011;75;48.784;9.364;2022-12-10T04:33:23;80.53;;;42.47;;
173;SDS011;75;48.784;9.364;2022-12-10T04:35:50;76.37;;;41.23;;
173;SDS011;75;48.784;9.364;2022-12-10T04:38:18;72.93;;;38.90;;
173;SDS011;75;48.784;9.364;2022-12-10T04:40:45;72.17;;;37.60;;
173;SDS011;75;48.784;9.364;2022-12-10T04:43:12;67.33;;;36.80;;
173;SDS011;75;48.784;9.364;2022-12-10T04:45:40;70.00;;;37.73;;
173;SDS011;75;48.784;9.364;2022-12-10T04:48:07;70.67;;;37.10;;
173;SDS011;75;48.784;9.364;2022-12-10T04:50:34;72.60;;;38.50;;
173;SDS011;75;48.784;9.364;2022-12-10T04:53:02;73.17;;;38.80;;
173;SDS011;75;48.784;9.364;2022-12-10T04:55:29;67.40;;;35.93;;
173;SDS011;75;48.784;9.364;2022-12-10T04:57:56;72.27;;;37.60;;
173;SDS011;75;48.784;9.364;2022-12-10T05:00:24;64.97;;;36.27;;
173;SDS011;75;48.784;9.364;2022-12-10T05:02:51;64.50;;;35.27;;
173;SDS011;75;48.784;9.364;2022-12-10T05:05:19;67.73;;;36.30;;
173;SDS011;75;48.784;9.364;2022-12-10T05:07:46;67.57;;;37.27;;
173;SDS011;75;48.784;9.364;2022-12-10T05:10:13;67.10;;;36.73;;
173;SDS011;75;48.784;9.364;2022-12-10T05:12:41;78.47;;;40.43;;
173;SDS011;75;48.784;9.364;2022-12-10T05:15:08;70.80;;;39.50;;
173;SDS011;75;48.784;9.364;2022-12-10T05:17:36;68.67;;;39.33;;
173;SDS011;75;48.784;9.364;2022-12-10T05:20:03;74.13;;;40.47;;
173;SDS011;75;48.784;9.364;2022-12-10T05:22:30;74.00;;;39.20;;
173;SDS011;75;48.784;9.364;2022-12-10T05:25:17;74.20;;;37.37;;
173;SDS011;75;48.784;9.364;2022-12-10T05:27:44;73.83;;;39.20;;
173;SDS011;75;48.784;9.364;2022-12-10T05:30:11;68.50;;;36.43;;
173;SDS011;75;48.784;9.364;2022-12-10T05:32:39;64.63;;;35.30;;
173;SDS011;75;48.784;9.364;2022-12-10T05:35:06;64.13;;;36.17;;
173;SDS011;75;48.784;9.364;2022-12-10T05:37:34;68.03;;;36.00;;
173;SDS011;75;48.784;9.364;2022-12-10T05:40:01;67.07;;;37.17;;
173;SDS011;75;48.784;9.364;2022-12-10T05:42:29;66.67;;;37.07;;
173;SDS011;75;48.784;9.364;2022-12-10T05:44:56;65.73;;;37.80;;
173;SDS011;75;48.784;9.364;2022-12-10T05:47:23;68.53;;;38.00;;
173;SDS011;75;48.784;9.364;2022-12-10T05:49:51;60.47;;;34.87;;
173;SDS011;75;48.784;9.364;2022-12-10T05:52:18;65.57;;;35.40;;
173;SDS011;75;48.784;9.364;2022-12-10T05:54:45;58.40;;;34.20;;
173;SDS011;75;48.784;9.364;2022-12-10T05:57:13;58.80;;;33.77;;
173;SDS011;75;48.784;9.364;2022-12-10T05:59:41;60.60;;;34.70;;
173;SDS011;75;48.784;9.364;2022-12-10T06:02:09;63.93;;;35.00;;
173;SDS011;75;48.784;9.364;2022-12-10T06:04:36;62.23;;;35.33;;
173;SDS011;75;48.784;9.364;2022-12-10T06:07:04;58.93;;;33.80;;
173;SDS011;75;48.784;9.364;2022-12-10T06:09:31;60.17;;;33.73;;
173;SDS011;75;48.784;9.364;2022-12-10T06:11:58;67.00;;;35.90;;
173;SDS011;75;48.784;9.364;2022-12-10T06:14:26;65.50;;;35.20;;
173;SDS011;75;48.784;9.364;2022-12-10T06:16:53;61.33;;;35.27;;
173;SDS011;75;48.784;9.364;2022-12-10T06:19:20;57.70;;;33.63;;
173;SDS011;75;48.784;9.364;2022-12-10T06:21:48;63.87;;;35.87;;
173;SDS011;75;48.784;9.364;2022-12-10T06:24:15;60.57;;;34.63;;
173;SDS011;75;48.784;9.364;2022-12-10T06:26:42;65.63;;;35.97;;
173;SDS011;75;48.784;9.364;2022-12-10T06:29:10;59.80;;;34.77;;
173;SDS011;75;48.784;9.364;2022-12-10T06:31:37;61.07;;;34.63;;
173;SDS011;75;48.784;9.364;2022-12-10T06:34:04;64.00;;;34.40;;
173;SDS011;75;48.784;9.364;2022-12-10T06:36:32;64.43;;;34.70;;
173;SDS011;75;48.784;9.364;2022-12-10T06:38:59;62.13;;;34.50;;
173;SDS011;75;48.784;9.364;2022-12-10T06:41:26;59.60;;;34.13;;
173;SDS011;75;48.784;9.364;2022-12-10T06:43:54;61.90;;;34.80;;
173;SDS011;75;48.784;9.364;2022-12-10T06:46:25;64.93;;;35.73;;
173;SDS011;75;48.784;9.364;2022-12-10T06:48:54;64.73;;;35.00;;
173;SDS011;75;48.784;9.364;2022-12-10T06:51:21;58.80;;;34.03;;
173;SDS011;75;48.784;9.364;2022-12-10T06:53:49;62.83;;;34.50;;
173;SDS011;75;48.784;9.364;2022-12-10T06:56:17;66.33;;;36.07;;
173;SDS011;75;48.784;9.364;2022-12-10T06:58:45;59.47;;;34.70;;
173;SDS011;75;48.784;9.364;2022-12-10T07:01:15;61.03;;;34.10;;
173;SDS011;75;48.784;9.364;2022-12-10T07:03:43;63.70;;;35.00;;
173;SDS011;75;48.784;9.364;2022-12-10T07:06:11;66.90;;;37.33;;
173;SDS011;75;48.784;9.364;2022-12-10T07:08:39;65.13;;;36.90;;
173;SDS011;75;48.784;9.364;2022-12-10T07:11:07;66.10;;;37.50;;
173;SDS011;75;48.784;9.364;2022-12-10T07:13:35;71.57;;;39.33;;
173;SDS011;75;48.784;9.364;2022-12-10T07:16:03;77.73;;;42.07;;
173;SDS011;75;48.784;9.364;2022-12-10T07:18:37;80.17;;;41.73;;
173;SDS011;75;48.784;9.364;2022-12-10T07:21:14;67.53;;;37.30;;
173;SDS011;75;48.784;9.364;2022-12-10T07:23:42;66.57;;;39.33;;
173;SDS011;75;48.784;9.364;2022-12-10T07:26:09;69.20;;;36.97;;
173;SDS011;75;48.784;9.364;2022-12-10T07:28:36;58.97;;;34.87;;
173;SDS011;75;48.784;9.364;2022-12-10T07:31:05;64.30;;;36.67;;
173;SDS011;75;48.784;9.364;2022-12-10T07:33:33;65.87;;;36.77;;
173;SDS011;75;48.784;9.364;2022-12-10T07:36:06;66.10;;;36.23;;
173;SDS011;75;48.784;9.364;2022-12-10T07:38:34;66.27;;;37.50;;
173;SDS011;75;48.784;9.364;2022-12-10T07:41:02;78.57;;;44.87;;
173;SDS011;75;48.784;9.364;2022-12-10T07:43:32;87.37;;;49.57;;
173;SDS011;75;48.784;9.364;2022-12-10T07:46:06;81.07;;;46.30;;
173;SDS011;75;48.784;9.364;2022-12-10T07:48:34;74.43;;;43.90;;
173;SDS011;75;48.784;9.364;2022-12-10T07:51:02;71.30;;;41.70;;
173;SDS011;75;48.784;9.364;2022-12-10T07:53:30;86.40;;;47.67;;
173;SDS011;75;48.784;9.364;2022-12-10T07:55:57;92.33;;;47.43;;
173;SDS011;75;48.784;9.364;2022-12-10T07:58:24;77.93;;;45.03;;
173;SDS011;75;48.784;9.364;2022-12-10T08:00:52;77.37;;;43.43;;
173;SDS011;75;48.784;9.364;2022-12-10T08:03:19;69.30;;;41.50;;
173;SDS011;75;48.784;9.364;2022-12-10T08:05:46;75.47;;;45.40;;
173;SDS011;75;48.784;9.364;2022-12-10T08:08:14;70.53;;;39.90;;
173;SDS011;75;48.784;9.364;2022-12-10T08:10:41;66.07;;;36.33;;
173;SDS011;75;48.784;9.364;2022-12-10T08:13:09;64.13;;;37.77;;
173;SDS011;75;48.784;9.364;2022-12-10T08:15:36;60.53;;;35.87;;
173;SDS011;75;48.784;9.364;2022-12-10T08:18:04;62.03;;;35.27;;
173;SDS011;75;48.784;9.364;2022-12-10T08:20:31;60.47;;;34.50;;
173;SDS011;75;48.784;9.364;2022-12-10T08:22:58;59.50;;;33.80;;
173;SDS011;75;48.784;9.364;2022-12-10T08:25:26;54.80;;;32.73;;
173;SDS011;75;48.784;9.364;2022-12-10T08:27:53;57.67;;;32.77;;
173;SDS011;75;48.784;9.364;2022-12-10T08:30:20;61.63;;;34.63;;
173;SDS011;75;48.784;9.364;2022-12-10T08:32:47;56.43;;;33.40;;
173;SDS011;75;48.784;9.364;2022-12-10T08:35:15;56.47;;;32.53;;
173;SDS011;75;48.784;9.364;2022-12-10T08:37:42;56.60;;;32.03;;
173;SDS011;75;48.784;9.364;2022-12-10T08:40:10;58.80;;;32.73;;
173;SDS011;75;48.784;9.364;2022-12-10T08:42:37;60.33;;;35.17;;
173;SDS011;75;48.784;9.364;2022-12-10T08:45:05;67.07;;;36.50;;
173;SDS011;75;48.784;9.364;2022-12-10T08:47:32;67.17;;;37.17;;
173;SDS011;75;48.784;9.364;2022-12-10T08:50:00;67.63;;;38.50;;
173;SDS011;75;48.784;9.364;2022-12-10T08:52:27;58.20;;;32.80;;
173;SDS011;75;48.784;9.364;2022-12-10T08:54:55;57.50;;;32.33;;
173;SDS011;75;48.784;9.364;2022-12-10T08:57:22;55.13;;;31.53;;
173;SDS011;75;48.784;9.364;2022-12-10T08:59:50;54.30;;;32.17;;
173;SDS011;75;48.784;9.364;2022-12-10T09:02:17;51.30;;;31.40;;
173;SDS011;75;48.784;9.364;2022-12-10T09:04:44;51.57;;;30.93;;
173;SDS011;75;48.784;9.364;2022-12-10T09:07:12;66.17;;;35.40;;
173;SDS011;75;48.784;9.364;2022-12-10T09:09:39;56.73;;;33.13;;
173;SDS011;75;48.784;9.364;2022-12-10T09:12:07;54.70;;;32.23;;
173;SDS011;75;48.784;9.364;2022-12-10T09:14:34;53.80;;;31.27;;
173;SDS011;75;48.784;9.364;2022-12-10T09:17:04;63.23;;;36.00;;
173;SDS011;75;48.784;9.364;2022-12-10T09:19:32;52.07;;;31.60;;
173;SDS011;75;48.784;9.364;2022-12-10T09:21:59;67.23;;;37.43;;
173;SDS011;75;48.784;9.364;2022-12-10T09:24:27;56.40;;;33.93;;
173;SDS011;75;48.784;9.364;2022-12-10T09:26:54;54.70;;;32.93;;
173;SDS011;75;48.784;9.364;2022-12-10T09:29:22;54.70;;;31.70;;
173;SDS011;75;48.784;9.364;2022-12-10T09:31:50;52.57;;;32.10;;
173;SDS011;75;48.784;9.364;2022-12-10T09:34:17;55.73;;;33.03;;
173;SDS011;75;48.784;9.364;2022-12-10T09:36:46;55.50;;;33.07;;
173;SDS011;75;48.784;9.364;2022-12-10T09:39:14;52.73;;;31.80;;
173;SDS011;75;48.784;9.364;2022-12-10T09:44:11;52.63;;;32.97;;
173;SDS011;75;48.784;9.364;2022-12-10T09:46:58;53.50;;;32.87;;
173;SDS011;75;48.784;9.364;2022-12-10T09:52:14;56.00;;;32.80;;
173;SDS011;75;48.784;9.364;2022-12-10T09:54:43;58.73;;;34.00;;
173;SDS011;75;48.784;9.364;2022-12-10T09:57:32;55.50;;;32.80;;
173;SDS011;75;48.784;9.364;2022-12-10T10:00:00;58.20;;;34.50;;
173;SDS011;75;48.784;9.364;2022-12-10T10:02:29;77.23;;;39.53;;
173;SDS011;75;48.784;9.364;2022-12-10T10:07:34;45.87;;;28.20;;
173;SDS011;75;48.784;9.364;2022-12-10T10:10:05;54.60;;;30.10;;
173;SDS011;75;48.784;9.364;2022-12-10T10:12:33;54.60;;;30.73;;
173;SDS011;75;48.784;9.364;2022-12-10T10:15:12;50.23;;;29.63;;
173;SDS011;75;48.784;9.364;2022-12-10T10:17:40;51.87;;;30.67;;
173;SDS011;75;48.784;9.364;2022-12-10T10:20:12;55.40;;;31.00;;
173;SDS011;75;48.784;9.364;2022-12-10T10:22:40;62.80;;;35.67;;
173;SDS011;75;48.784;9.364;2022-12-10T10:25:14;56.73;;;31.80;;
173;SDS011;75;48.784;9.364;2022-12-10T10:27:42;50.77;;;30.10;;
173;SDS011;75;48.784;9.364;2022-12-10T10:30:20;53.70;;;31.13;;
173;SDS011;75;48.784;9.364;2022-12-10T10:32:52;72.60;;;46.07;;
173;SDS011;75;48.784;9.364;2022-12-10T10:35:30;60.30;;;39.53;;
173;SDS011;75;48.784;9.364;2022-12-10T10:37:59;54.53;;;32.50;;
173;SDS011;75;48.784;9.364;2022-12-10T10:40:32;51.10;;;30.07;;
173;SDS011;75;48.784;9.364;2022-12-10T10:43:00;57.90;;;31.70;;
173;SDS011;75;48.784;9.364;2022-12-10T10:45:31;55.63;;;33.03;;
173;SDS011;75;48.784;9.364;2022-12-10T10:48:08;53.40;;;31.57;;
173;SDS011;75;48.784;9.364;2022-12-10T10:50:37;56.00;;;32.77;;
173;SDS011;75;48.784;9.364;2022-12-10T10:55:51;50.43;;;29.43;;
173;SDS011;75;48.784;9.364;2022-12-10T10:58:19;52.90;;;30.80;;
173;SDS011;75;48.784;9.364;2022-12-10T11:00:55;55.20;;;31.97;;
173;SDS011;75;48.784;9.364;2022-12-10T11:03:23;55.83;;;30.93;;
173;SDS011;75;48.784;9.364;2022-12-10T11:05:50;60.63;;;34.27;;
173;SDS011;75;48.784;9.364;2022-12-10T11:08:18;49.47;;;30.10;;
173;SDS011;75;48.784;9.364;2022-12-10T11:10:51;53.50;;;32.50;;
173;SDS011;75;48.784;9.364;2022-12-10T11:13:23;53.97;;;31.20;;
173;SDS011;75;48.784;9.364;2022-12-10T11:18:42;58.37;;;32.90;;
173;SDS011;75;48.784;9.364;2022-12-10T11:21:18;51.53;;;30.00;;
173;SDS011;75;48.784;9.364;2022-12-10T11:23:49;52.50;;;29.50;;
173;SDS011;75;48.784;9.364;2022-12-10T11:26:42;48.20;;;28.57;;
173;SDS011;75;48.784;9.364;2022-12-10T11:32:04;65.40;;;34.70;;
173;SDS011;75;48.784;9.364;2022-12-10T11:42:55;46.77;;;28.20;;
173;SDS011;75;48.784;9.364;2022-12-10T11:51:00;46.60;;;27.93;;
173;SDS011;75;48.784;9.364;2022-12-10T11:56:14;48.17;;;28.07;;
173;SDS011;75;48.784;9.364;2022-12-10T11:58:57;48.70;;;27.90;;
173;SDS011;75;48.784;9.364;2022-12-10T12:01:36;45.50;;;25.57;;
173;SDS011;75;48.784;9.364;2022-12-10T12:09:03;43.83;;;24.07;;
173;SDS011;75;48.784;9.364;2022-12-10T12:14:29;44.83;;;26.47;;
173;SDS011;75;48.784;9.364;2022-12-10T12:17:46;46.00;;;26.50;;
173;SDS011;75;48.784;9.364;2022-12-10T12:19:56;44.37;;;25.47;;
173;SDS011;75;48.784;9.364;2022-12-10T12:22:27;50.03;;;29.40;;
173;SDS011;75;48.784;9.364;2022-12-10T12:24:59;51.90;;;29.70;;
173;SDS011;75;48.784;9.364;2022-12-10T12:27:30;49.90;;;28.27;;
173;SDS011;75;48.784;9.364;2022-12-10T12:30:03;50.57;;;28.60;;
173;SDS011;75;48.784;9.364;2022-12-10T12:35:13;46.40;;;27.73;;
173;SDS011;75;48.784;9.364;2022-12-10T12:37:45;46.77;;;26.43;;
173;SDS011;75;48.784;9.364;2022-12-10T12:40:15;46.47;;;26.47;;
173;SDS011;75;48.784;9.364;2022-12-10T12:42:49;51.80;;;26.40;;
173;SDS011;75;48.784;9.364;2022-12-10T12:45:19;49.20;;;28.73;;
173;SDS011;75;48.784;9.364;2022-12-10T12:47:48;47.20;;;26.50;;
173;SDS011;75;48.784;9.364;2022-12-10T12:52:48;48.23;;;29.23;;
173;SDS011;75;48.784;9.364;2022-12-10T12:55:20;42.83;;;25.53;;
173;SDS011;75;48.784;9.364;2022-12-10T12:57:53;48.20;;;27.47;;
173;SDS011;75;48.784;9.364;2022-12-10T13:00:22;46.83;;;27.80;;
173;SDS011;75;48.784;9.364;2022-12-10T13:03:00;50.03;;;30.00;;
173;SDS011;75;48.784;9.364;2022-12-10T13:05:32;43.80;;;26.10;;
173;SDS011;75;48.784;9.364;2022-12-10T13:10:51;43.20;;;26.20;;
173;SDS011;75;48.784;9.364;2022-12-10T13:15:55;41.97;;;24.43;;
173;SDS011;75;48.784;9.364;2022-12-10T13:18:33;38.60;;;22.83;;
173;SDS011;75;48.784;9.364;2022-12-10T13:23:51;44.37;;;25.97;;
173;SDS011;75;48.784;9.364;2022-12-10T13:26:25;41.13;;;24.20;;
173;SDS011;75;48.784;9.364;2022-12-10T13:28:53;37.13;;;22.40;;
173;SDS011;75;48.784;9.364;2022-12-10T13:31:22;44.43;;;26.13;;
173;SDS011;75;48.784;9.364;2022-12-10T13:41:25;48.60;;;28.23;;
173;SDS011;75;48.784;9.364;2022-12-10T13:44:33;45.30;;;27.67;;
173;SDS011;75;48.784;9.364;2022-12-10T13:49:47;48.80;;;27.10;;
173;SDS011;75;48.784;9.364;2022-12-10T13:52:17;50.00;;;29.17;;
173;SDS011;75;48.784;9.364;2022-12-10T13:57:30;43.13;;;26.27;;
173;SDS011;75;48.784;9.364;2022-12-10T14:00:06;47.60;;;27.90;;
173;SDS011;75;48.784;9.364;2022-12-10T14:03:09;47.37;;;27.57;;
173;SDS011;75;48.784;9.364;2022-12-10T14:08:08;46.10;;;27.80;;
173;SDS011;75;48.784;9.364;2022-12-10T14:10:38;48.93;;;26.07;;
173;SDS011;75;48.784;9.364;2022-12-10T14:13:10;42.90;;;24.70;;
173;SDS011;75;48.784;9.364;2022-12-10T14:15:38;60.07;;;35.77;;
173;SDS011;75;48.784;9.364;2022-12-10T14:18:12;41.70;;;25.10;;
173;SDS011;75;48.784;9.364;2022-12-10T14:20:47;42.67;;;24.87;;
173;SDS011;75;48.784;9.364;2022-12-10T14:26:12;44.03;;;24.87;;
173;SDS011;75;48.784;9.364;2022-12-10T14:28:43;42.50;;;24.80;;
173;SDS011;75;48.784;9.364;2022-12-10T14:31:16;43.70;;;25.93;;
173;SDS011;75;48.784;9.364;2022-12-10T14:33:44;36.63;;;22.73;;
173;SDS011;75;48.784;9.364;2022-12-10T14:36:14;45.87;;;26.83;;
173;SDS011;75;48.784;9.364;2022-12-10T14:38:43;38.70;;;22.73;;
173;SDS011;75;48.784;9.364;2022-12-10T14:41:15;38.00;;;22.10;;
173;SDS011;75;48.784;9.364;2022-12-10T14:43:44;38.07;;;22.87;;
173;SDS011;75;48.784;9.364;2022-12-10T14:46:13;40.90;;;23.83;;
173;SDS011;75;48.784;9.364;2022-12-10T14:48:41;46.13;;;26.40;;
173;SDS011;75;48.784;9.364;2022-12-10T14:51:16;40.17;;;23.30;;
173;SDS011;75;48.784;9.364;2022-12-10T14:53:45;43.23;;;24.87;;
173;SDS011;75;48.784;9.364;2022-12-10T14:56:16;40.37;;;22.07;;
173;SDS011;75;48.784;9.364;2022-12-10T14:58:49;52.73;;;28.17;;
173;SDS011;75;48.784;9.364;2022-12-10T15:01:34;52.30;;;28.77;;
173;SDS011;75;48.784;9.364;2022-12-10T15:04:03;49.60;;;29.27;;
173;SDS011;75;48.784;9.364;2022-12-10T15:06:33;60.20;;;31.77;;
173;SDS011;75;48.784;9.364;2022-12-10T15:09:00;57.13;;;30.87;;
173;SDS011;75;48.784;9.364;2022-12-10T15:11:28;67.10;;;36.47;;
173;SDS011;75;48.784;9.364;2022-12-10T15:13:57;53.90;;;29.00;;
173;SDS011;75;48.784;9.364;2022-12-10T15:16:40;83.80;;;44.43;;
173;SDS011;75;48.784;9.364;2022-12-10T15:19:09;57.00;;;30.40;;
173;SDS011;75;48.784;9.364;2022-12-10T15:21:43;60.73;;;30.90;;
173;SDS011;75;48.784;9.364;2022-12-10T15:26:42;63.90;;;31.60;;
173;SDS011;75;48.784;9.364;2022-12-10T15:31:56;71.07;;;35.03;;
173;SDS011;75;48.784;9.364;2022-12-10T15:34:28;72.23;;;39.80;;
173;SDS011;75;48.784;9.364;2022-12-10T15:36:56;71.57;;;44.00;;
173;SDS011;75;48.784;9.364;2022-12-10T15:39:28;70.20;;;40.93;;
173;SDS011;75;48.784;9.364;2022-12-10T15:41:57;71.60;;;37.00;;
173;SDS011;75;48.784;9.364;2022-12-10T15:47:00;84.33;;;44.10;;
173;SDS011;75;48.784;9.364;2022-12-10T15:49:29;94.50;;;46.00;;
173;SDS011;75;48.784;9.364;2022-12-10T15:51:56;78.40;;;40.07;;
173;SDS011;75;48.784;9.364;2022-12-10T15:54:30;66.67;;;34.63;;
173;SDS011;75;48.784;9.364;2022-12-10T15:56:59;72.30;;;35.20;;
173;SDS011;75;48.784;9.364;2022-12-10T15:59:27;68.47;;;34.20;;
173;SDS011;75;48.784;9.364;2022-12-10T16:01:54;63.40;;;34.73;;
173;SDS011;75;48.784;9.364;2022-12-10T16:04:22;59.33;;;30.80;;
173;SDS011;75;48.784;9.364;2022-12-10T16:06:49;59.97;;;31.37;;
173;SDS011;75;48.784;9.364;2022-12-10T16:09:16;57.17;;;31.03;;
173;SDS011;75;48.784;9.364;2022-12-10T16:11:44;63.40;;;32.70;;
173;SDS011;75;48.784;9.364;2022-12-10T16:14:11;57.40;;;31.40;;
173;SDS011;75;48.784;9.364;2022-12-10T16:16:39;61.60;;;32.47;;
173;SDS011;75;48.784;9.364;2022-12-10T16:19:10;65.63;;;32.73;;
173;SDS011;75;48.784;9.364;2022-12-10T16:21:38;68.53;;;34.03;;
173;SDS011;75;48.784;9.364;2022-12-10T16:24:07;84.33;;;47.87;;
173;SDS011;75;48.784;9.364;2022-12-10T16:26:34;73.30;;;36.03;;
173;SDS011;75;48.784;9.364;2022-12-10T16:29:02;61.97;;;33.40;;
173;SDS011;75;48.784;9.364;2022-12-10T16:31:29;60.63;;;32.73;;
173;SDS011;75;48.784;9.364;2022-12-10T16:33:57;64.43;;;32.93;;
173;SDS011;75;48.784;9.364;2022-12-10T16:36:24;60.23;;;33.10;;
173;SDS011;75;48.784;9.364;2022-12-10T16:38:52;45.90;;;26.37;;
173;SDS011;75;48.784;9.364;2022-12-10T16:41:21;67.57;;;36.40;;
173;SDS011;75;48.784;9.364;2022-12-10T16:43:49;74.37;;;40.07;;
173;SDS011;75;48.784;9.364;2022-12-10T16:46:16;67.83;;;35.80;;
173;SDS011;75;48.784;9.364;2022-12-10T16:48:44;64.50;;;35.37;;
173;SDS011;75;48.784;9.364;2022-12-10T16:51:16;67.83;;;37.13;;
173;SDS011;75;48.784;9.364;2022-12-10T16:53:45;66.80;;;37.73;;
173;SDS011;75;48.784;9.364;2022-12-10T16:56:13;69.87;;;37.80;;
173;SDS011;75;48.784;9.364;2022-12-10T16:58:41;77.10;;;42.10;;
173;SDS011;75;48.784;9.364;2022-12-10T17:01:29;74.23;;;39.83;;
173;SDS011;75;48.784;9.364;2022-12-10T17:03:57;77.13;;;42.23;;
173;SDS011;75;48.784;9.364;2022-12-10T17:06:25;67.37;;;37.73;;
173;SDS011;75;48.784;9.364;2022-12-10T17:08:52;66.00;;;34.83;;
173;SDS011;75;48.784;9.364;2022-12-10T17:11:24;63.93;;;32.17;;
173;SDS011;75;48.784;9.364;2022-12-10T17:14:13;62.30;;;34.10;;
173;SDS011;75;48.784;9.364;2022-12-10T17:16:45;60.80;;;33.50;;
173;SDS011;75;48.784;9.364;2022-12-10T17:19:12;63.40;;;34.00;;
173;SDS011;75;48.784;9.364;2022-12-10T17:21:39;64.07;;;33.67;;
173;SDS011;75;48.784;9.364;2022-12-10T17:24:07;71.30;;;37.20;;